Hoppet Af Brantevik — SKWL — position and weather

sailwx.info

Track history (hours):
 
Tides and Currents Weather Stations Pressure Air Temp Water Temp Dewpoint Dewpoint Depression Visibility Wind Speed Wind Dir Waves Ship Positions

Hoppet Af Brantevik

Last reported at 2015-Jul-03 00:22 UTC. Time now 2015-Jul-04 06:59 UTC.
Position N 55°31' E 014°21'.

Length 17 m; draft 2.2 m.

Type: Ship. MMSI: 265525900.

Date/timePositionNaut miles runAvg speedWind from/ knotsBaromVisibWave heightAir tempDewpointWater temp
2015-Jul-03 00:22N 55°31' E 014°21'0 0.0
2015-Jul-02 23:29N 55°31' E 014°21'0 0.0
2015-Jul-02 22:31N 55°31' E 014°21'0 0.0
2015-Jul-02 21:28N 55°31' E 014°21'0 0.0
2015-Jul-02 20:28N 55°31' E 014°21'0 0.0
2015-Jul-02 19:28N 55°31' E 014°21'0 0.0
2015-Jul-02 18:28N 55°31' E 014°21'0 0.0
2015-Jul-02 17:28N 55°31' E 014°21'0 0.0
2015-Jul-02 16:28N 55°31' E 014°21'0 0.0
2015-Jul-02 15:22N 55°31' E 014°21'0 0.0
2015-Jul-02 14:28N 55°31' E 014°21'0 0.0
2015-Jul-02 13:22N 55°31' E 014°21'0 0.0
2015-Jul-02 12:22N 55°31' E 014°21'0 0.0
2015-Jul-02 11:31N 55°31' E 014°21'0 0.0
2015-Jul-02 10:33N 55°31' E 014°21'1 0.5
2015-Jul-02 09:33N 55°30' E 014°22'4 4.0
2015-Jul-02 08:33N 55°26' E 014°23'7 6.9
2015-Jul-02 07:33N 55°20' E 014°26'6 5.9
2015-Jul-02 06:33N 55°16' E 014°34'6 5.9
2015-Jul-02 05:33N 55°10' E 014°38'3 3.3
2015-Jul-02 04:33N 55°07' E 014°40'2 1.9
2015-Jul-02 03:31N 55°06' E 014°42'0 0.0
2015-Jul-02 02:31N 55°06' E 014°42'0 0.0
2015-Jul-02 01:31N 55°06' E 014°42'0 0.0
2015-Jul-02 00:31N 55°06' E 014°42'0 0.0
2015-Jul-01 23:28N 55°06' E 014°42'0 0.0
2015-Jul-01 22:31N 55°06' E 014°42'0 0.0
2015-Jul-01 21:28N 55°06' E 014°42'0 0.0
2015-Jul-01 20:31N 55°06' E 014°42'0 0.0
2015-Jul-01 19:29N 55°06' E 014°42'0 0.0
2015-Jul-01 18:28N 55°06' E 014°42'0 0.0
2015-Jul-01 17:28N 55°06' E 014°42'0 0.0
2015-Jul-01 16:28N 55°06' E 014°42'0 0.0
2015-Jul-01 15:28N 55°06' E 014°42'0 0.0
2015-Jul-01 14:28N 55°06' E 014°42'0 0.0
2015-Jul-01 13:28N 55°06' E 014°42'0 0.0
2015-Jul-01 12:28N 55°06' E 014°42'0 0.0
2015-Jul-01 11:28N 55°06' E 014°42'0 0.0
2015-Jul-01 10:28N 55°06' E 014°42'0 0.0
2015-Jul-01 09:28N 55°06' E 014°42'0 0.0
2015-Jul-01 08:31N 55°06' E 014°42'0 0.0
2015-Jul-01 07:28N 55°06' E 014°42'0 0.0
2015-Jul-01 06:28N 55°06' E 014°42'0 0.0
2015-Jul-01 05:31N 55°06' E 014°42'0 0.0
2015-Jul-01 04:31N 55°06' E 014°42'0 0.0
2015-Jul-01 03:28N 55°06' E 014°42'0 0.0
2015-Jul-01 02:31N 55°06' E 014°42'0 0.0
2015-Jul-01 01:28N 55°06' E 014°42'0 0.0
2015-Jul-01 00:31N 55°06' E 014°42'0 0.0
2015-Jun-30 23:31N 55°06' E 014°42'0 0.0
2015-Jun-30 22:28N 55°06' E 014°42'0 0.0
2015-Jun-30 21:31N 55°06' E 014°42'0 0.0
2015-Jun-30 20:31N 55°06' E 014°42'0 0.0
2015-Jun-30 19:31N 55°06' E 014°42'0 0.0
2015-Jun-30 18:31N 55°06' E 014°42'0 0.0
2015-Jun-30 17:28N 55°06' E 014°42'0 0.0
2015-Jun-30 16:31N 55°06' E 014°42'0 0.0
2015-Jun-30 15:31N 55°06' E 014°42'0 0.0
2015-Jun-30 14:28N 55°06' E 014°42'0 0.0
2015-Jun-30 13:28N 55°06' E 014°42'0 0.0
2015-Jun-30 12:28N 55°06' E 014°42'0 0.0
2015-Jun-30 11:31N 55°06' E 014°42'0 0.0
2015-Jun-30 10:31N 55°06' E 014°42'0 0.0
2015-Jun-30 09:31N 55°06' E 014°42'0 0.0
2015-Jun-30 08:22N 55°06' E 014°42'0 0.0
2015-Jun-30 07:31N 55°06' E 014°42'0 0.0
2015-Jun-30 06:31N 55°06' E 014°42'0 0.0
2015-Jun-30 05:31N 55°06' E 014°42'0 0.0
2015-Jun-30 04:31N 55°06' E 014°42'0 0.0
2015-Jun-30 03:31N 55°06' E 014°42'0 0.0
2015-Jun-30 02:28N 55°06' E 014°42'0 0.0
2015-Jun-30 01:31N 55°06' E 014°42'0 0.0
2015-Jun-30 00:31N 55°06' E 014°42'0 0.0
2015-Jun-29 23:31N 55°06' E 014°42'0 0.0
2015-Jun-29 22:31N 55°06' E 014°42'0 0.0
2015-Jun-29 21:31N 55°06' E 014°42'0 0.0
2015-Jun-29 20:31N 55°06' E 014°42'0 0.0
2015-Jun-29 19:28N 55°06' E 014°42'0 0.0
2015-Jun-29 18:31N 55°06' E 014°42'0 0.0
2015-Jun-29 17:33N 55°06' E 014°42'0 0.0
2015-Jun-29 16:34N 55°06' E 014°42'0 0.0
2015-Jun-29 15:33N 55°06' E 014°42'2 2.3
2015-Jun-29 14:33N 55°04' E 014°38'7 7.1
2015-Jun-29 13:34N 54°60' E 014°29'7 7.0
2015-Jun-29 12:34N 54°55' E 014°20'7 7.2
2015-Jun-29 11:33N 54°50' E 014°11'  
2015-Jun-27 05:29N 53°48' E 014°21'  
Track history (hours):
 
Tides and Currents Weather Stations Pressure Air Temp Water Temp Dewpoint Dewpoint Depression Visibility Wind Speed Wind Dir Waves Ship Positions

Hoppet Af Brantevik

Last reported at 2015-Jul-03 00:22 UTC. Time now 2015-Jul-04 06:59 UTC.
Position N 55°31' E 014°21'.

Length 17 m; draft 2.2 m.

Type: Ship. MMSI: 265525900.

Date/timePositionNaut miles runAvg speedWind from/ knotsBaromVisibWave heightAir tempDewpointWater temp
2015-Jul-03 00:22N 55°31' E 014°21'0 0.0
2015-Jul-02 23:29N 55°31' E 014°21'0 0.0
2015-Jul-02 22:31N 55°31' E 014°21'0 0.0
2015-Jul-02 21:28N 55°31' E 014°21'0 0.0
2015-Jul-02 20:28N 55°31' E 014°21'0 0.0
2015-Jul-02 19:28N 55°31' E 014°21'0 0.0
2015-Jul-02 18:28N 55°31' E 014°21'0 0.0
2015-Jul-02 17:28N 55°31' E 014°21'0 0.0
2015-Jul-02 16:28N 55°31' E 014°21'0 0.0
2015-Jul-02 15:22N 55°31' E 014°21'0 0.0
2015-Jul-02 14:28N 55°31' E 014°21'0 0.0
2015-Jul-02 13:22N 55°31' E 014°21'0 0.0
2015-Jul-02 12:22N 55°31' E 014°21'0 0.0
2015-Jul-02 11:31N 55°31' E 014°21'0 0.0
2015-Jul-02 10:33N 55°31' E 014°21'1 0.5
2015-Jul-02 09:33N 55°30' E 014°22'4 4.0
2015-Jul-02 08:33N 55°26' E 014°23'7 6.9
2015-Jul-02 07:33N 55°20' E 014°26'6 5.9
2015-Jul-02 06:33N 55°16' E 014°34'6 5.9
2015-Jul-02 05:33N 55°10' E 014°38'3 3.3
2015-Jul-02 04:33N 55°07' E 014°40'2 1.9
2015-Jul-02 03:31N 55°06' E 014°42'0 0.0
2015-Jul-02 02:31N 55°06' E 014°42'0 0.0
2015-Jul-02 01:31N 55°06' E 014°42'0 0.0
2015-Jul-02 00:31N 55°06' E 014°42'0 0.0
2015-Jul-01 23:28N 55°06' E 014°42'0 0.0
2015-Jul-01 22:31N 55°06' E 014°42'0 0.0
2015-Jul-01 21:28N 55°06' E 014°42'0 0.0
2015-Jul-01 20:31N 55°06' E 014°42'0 0.0
2015-Jul-01 19:29N 55°06' E 014°42'0 0.0
2015-Jul-01 18:28N 55°06' E 014°42'0 0.0
2015-Jul-01 17:28N 55°06' E 014°42'0 0.0
2015-Jul-01 16:28N 55°06' E 014°42'0 0.0
2015-Jul-01 15:28N 55°06' E 014°42'0 0.0
2015-Jul-01 14:28N 55°06' E 014°42'0 0.0
2015-Jul-01 13:28N 55°06' E 014°42'0 0.0
2015-Jul-01 12:28N 55°06' E 014°42'0 0.0
2015-Jul-01 11:28N 55°06' E 014°42'0 0.0
2015-Jul-01 10:28N 55°06' E 014°42'0 0.0
2015-Jul-01 09:28N 55°06' E 014°42'0 0.0
2015-Jul-01 08:31N 55°06' E 014°42'0 0.0
2015-Jul-01 07:28N 55°06' E 014°42'0 0.0
2015-Jul-01 06:28N 55°06' E 014°42'0 0.0
2015-Jul-01 05:31N 55°06' E 014°42'0 0.0
2015-Jul-01 04:31N 55°06' E 014°42'0 0.0
2015-Jul-01 03:28N 55°06' E 014°42'0 0.0
2015-Jul-01 02:31N 55°06' E 014°42'0 0.0
2015-Jul-01 01:28N 55°06' E 014°42'0 0.0
2015-Jul-01 00:31N 55°06' E 014°42'0 0.0
2015-Jun-30 23:31N 55°06' E 014°42'0 0.0
2015-Jun-30 22:28N 55°06' E 014°42'0 0.0
2015-Jun-30 21:31N 55°06' E 014°42'0 0.0
2015-Jun-30 20:31N 55°06' E 014°42'0 0.0
2015-Jun-30 19:31N 55°06' E 014°42'0 0.0
2015-Jun-30 18:31N 55°06' E 014°42'0 0.0
2015-Jun-30 17:28N 55°06' E 014°42'0 0.0
2015-Jun-30 16:31N 55°06' E 014°42'0 0.0
2015-Jun-30 15:31N 55°06' E 014°42'0 0.0
2015-Jun-30 14:28N 55°06' E 014°42'0 0.0
2015-Jun-30 13:28N 55°06' E 014°42'0 0.0
2015-Jun-30 12:28N 55°06' E 014°42'0 0.0
2015-Jun-30 11:31N 55°06' E 014°42'0 0.0
2015-Jun-30 10:31N 55°06' E 014°42'0 0.0
2015-Jun-30 09:31N 55°06' E 014°42'0 0.0
2015-Jun-30 08:22N 55°06' E 014°42'0 0.0
2015-Jun-30 07:31N 55°06' E 014°42'0 0.0
2015-Jun-30 06:31N 55°06' E 014°42'0 0.0
2015-Jun-30 05:31N 55°06' E 014°42'0 0.0
2015-Jun-30 04:31N 55°06' E 014°42'0 0.0
2015-Jun-30 03:31N 55°06' E 014°42'0 0.0
2015-Jun-30 02:28N 55°06' E 014°42'0 0.0
2015-Jun-30 01:31N 55°06' E 014°42'0 0.0
2015-Jun-30 00:31N 55°06' E 014°42'0 0.0
2015-Jun-29 23:31N 55°06' E 014°42'0 0.0
2015-Jun-29 22:31N 55°06' E 014°42'0 0.0
2015-Jun-29 21:31N 55°06' E 014°42'0 0.0
2015-Jun-29 20:31N 55°06' E 014°42'0 0.0
2015-Jun-29 19:28N 55°06' E 014°42'0 0.0
2015-Jun-29 18:31N 55°06' E 014°42'0 0.0
2015-Jun-29 17:33N 55°06' E 014°42'0 0.0
2015-Jun-29 16:34N 55°06' E 014°42'0 0.0
2015-Jun-29 15:33N 55°06' E 014°42'2 2.3
2015-Jun-29 14:33N 55°04' E 014°38'7 7.1
2015-Jun-29 13:34N 54°60' E 014°29'7 7.0
2015-Jun-29 12:34N 54°55' E 014°20'7 7.2
2015-Jun-29 11:33N 54°50' E 014°11'  
2015-Jun-27 05:29N 53°48' E 014°21'  

Dump ship's entire track history